sensor_id;sensor_type;location;lat;lon;timestamp;pressure;altitude;pressure_sealevel;temperature;humidity
57114;BME280;42994;51.606;9.988;2023-10-31T00:01:27;97456.66;;;10.79;100.00
57114;BME280;42994;51.606;9.988;2023-10-31T00:03:54;97477.88;;;10.81;100.00
57114;BME280;42994;51.606;9.988;2023-10-31T00:06:23;97467.97;;;10.81;100.00
57114;BME280;42994;51.606;9.988;2023-10-31T00:08:50;97464.84;;;10.84;100.00
57114;BME280;42994;51.606;9.988;2023-10-31T00:11:16;97460.84;;;10.87;100.00
57114;BME280;42994;51.606;9.988;2023-10-31T00:13:43;97462.25;;;10.89;100.00
57114;BME280;42994;51.606;9.988;2023-10-31T00:16:10;97450.03;;;10.93;100.00
57114;BME280;42994;51.606;9.988;2023-10-31T00:18:36;97447.09;;;10.95;100.00
57114;BME280;42994;51.606;9.988;2023-10-31T00:21:03;97451.31;;;11.03;100.00
57114;BME280;42994;51.606;9.988;2023-10-31T00:23:32;97451.66;;;11.06;100.00
57114;BME280;42994;51.606;9.988;2023-10-31T00:25:59;97456.09;;;11.01;100.00
57114;BME280;42994;51.606;9.988;2023-10-31T00:28:25;97456.69;;;11.03;100.00
57114;BME280;42994;51.606;9.988;2023-10-31T00:30:52;97475.81;;;11.06;100.00
57114;BME280;42994;51.606;9.988;2023-10-31T00:33:20;97475.69;;;11.01;100.00
57114;BME280;42994;51.606;9.988;2023-10-31T00:35:47;97481.63;;;11.03;100.00
57114;BME280;42994;51.606;9.988;2023-10-31T00:38:14;97480.34;;;11.06;100.00
57114;BME280;42994;51.606;9.988;2023-10-31T00:40:42;97478.47;;;11.06;100.00
57114;BME280;42994;51.606;9.988;2023-10-31T00:43:09;97482.44;;;11.15;100.00
57114;BME280;42994;51.606;9.988;2023-10-31T00:45:35;97475.44;;;11.14;100.00
57114;BME280;42994;51.606;9.988;2023-10-31T00:48:02;97474.97;;;11.18;100.00
57114;BME280;42994;51.606;9.988;2023-10-31T00:50:29;97459.47;;;11.20;100.00
57114;BME280;42994;51.606;9.988;2023-10-31T00:52:56;97463.19;;;11.07;100.00
57114;BME280;42994;51.606;9.988;2023-10-31T00:55:22;97476.13;;;10.98;100.00
57114;BME280;42994;51.606;9.988;2023-10-31T00:57:51;97477.56;;;11.01;100.00
57114;BME280;42994;51.606;9.988;2023-10-31T01:00:18;97480.09;;;10.95;100.00
57114;BME280;42994;51.606;9.988;2023-10-31T01:02:45;97476.25;;;11.03;100.00
57114;BME280;42994;51.606;9.988;2023-10-31T01:05:12;97477.88;;;11.04;100.00
57114;BME280;42994;51.606;9.988;2023-10-31T01:07:39;97480.47;;;11.11;100.00
57114;BME280;42994;51.606;9.988;2023-10-31T01:10:07;97479.28;;;11.07;100.00
57114;BME280;42994;51.606;9.988;2023-10-31T01:12:34;97486.28;;;11.08;100.00
57114;BME280;42994;51.606;9.988;2023-10-31T01:15:02;97478.34;;;11.13;100.00
57114;BME280;42994;51.606;9.988;2023-10-31T01:17:30;97467.84;;;11.11;100.00
57114;BME280;42994;51.606;9.988;2023-10-31T01:19:57;97482.09;;;11.12;100.00
57114;BME280;42994;51.606;9.988;2023-10-31T01:22:24;97482.69;;;11.14;100.00
57114;BME280;42994;51.606;9.988;2023-10-31T01:24:50;97474.50;;;11.09;100.00
57114;BME280;42994;51.606;9.988;2023-10-31T01:27:17;97466.00;;;11.12;100.00
57114;BME280;42994;51.606;9.988;2023-10-31T01:29:44;97470.19;;;11.20;100.00
57114;BME280;42994;51.606;9.988;2023-10-31T01:32:12;97474.88;;;11.12;100.00
57114;BME280;42994;51.606;9.988;2023-10-31T01:34:38;97471.13;;;11.25;100.00
57114;BME280;42994;51.606;9.988;2023-10-31T01:37:05;97464.38;;;11.23;100.00
57114;BME280;42994;51.606;9.988;2023-10-31T01:39:32;97464.59;;;11.21;100.00
57114;BME280;42994;51.606;9.988;2023-10-31T01:41:58;97460.06;;;11.22;100.00
57114;BME280;42994;51.606;9.988;2023-10-31T01:44:25;97452.59;;;11.24;100.00
57114;BME280;42994;51.606;9.988;2023-10-31T01:46:52;97455.97;;;11.19;100.00
57114;BME280;42994;51.606;9.988;2023-10-31T01:49:21;97454.34;;;11.18;100.00
57114;BME280;42994;51.606;9.988;2023-10-31T01:51:48;97460.28;;;11.20;100.00
57114;BME280;42994;51.606;9.988;2023-10-31T01:54:15;97462.03;;;11.26;100.00
57114;BME280;42994;51.606;9.988;2023-10-31T01:56:43;97462.75;;;11.33;100.00
57114;BME280;42994;51.606;9.988;2023-10-31T01:59:10;97448.97;;;11.30;100.00
57114;BME280;42994;51.606;9.988;2023-10-31T02:01:38;97440.22;;;11.34;100.00
57114;BME280;42994;51.606;9.988;2023-10-31T02:04:05;97437.41;;;11.29;100.00
57114;BME280;42994;51.606;9.988;2023-10-31T02:06:33;97426.00;;;11.34;100.00
57114;BME280;42994;51.606;9.988;2023-10-31T02:09:00;97421.91;;;11.31;100.00
57114;BME280;42994;51.606;9.988;2023-10-31T02:11:27;97420.50;;;11.29;100.00
57114;BME280;42994;51.606;9.988;2023-10-31T02:13:54;97410.00;;;11.27;100.00
57114;BME280;42994;51.606;9.988;2023-10-31T02:16:20;97401.97;;;11.27;100.00
57114;BME280;42994;51.606;9.988;2023-10-31T02:18:47;97415.38;;;11.27;100.00
57114;BME280;42994;51.606;9.988;2023-10-31T02:21:14;97407.56;;;11.26;100.00
57114;BME280;42994;51.606;9.988;2023-10-31T02:23:42;97417.94;;;11.34;100.00
57114;BME280;42994;51.606;9.988;2023-10-31T02:26:09;97405.13;;;11.24;100.00
57114;BME280;42994;51.606;9.988;2023-10-31T02:28:37;97413.63;;;11.33;100.00
57114;BME280;42994;51.606;9.988;2023-10-31T02:31:04;97412.47;;;11.29;100.00
57114;BME280;42994;51.606;9.988;2023-10-31T02:33:31;97414.91;;;11.30;100.00
57114;BME280;42994;51.606;9.988;2023-10-31T02:35:57;97419.34;;;11.37;100.00
57114;BME280;42994;51.606;9.988;2023-10-31T02:38:24;97411.50;;;11.35;100.00
57114;BME280;42994;51.606;9.988;2023-10-31T02:40:52;97399.50;;;11.38;100.00
57114;BME280;42994;51.606;9.988;2023-10-31T02:43:19;97395.91;;;11.32;100.00
57114;BME280;42994;51.606;9.988;2023-10-31T02:45:46;97405.44;;;11.40;100.00
57114;BME280;42994;51.606;9.988;2023-10-31T02:48:13;97404.66;;;11.39;100.00
57114;BME280;42994;51.606;9.988;2023-10-31T02:50:39;97406.16;;;11.35;100.00
57114;BME280;42994;51.606;9.988;2023-10-31T02:53:07;97403.13;;;11.31;100.00
57114;BME280;42994;51.606;9.988;2023-10-31T02:55:33;97406.06;;;11.30;100.00
57114;BME280;42994;51.606;9.988;2023-10-31T02:58:02;97401.63;;;11.35;100.00
57114;BME280;42994;51.606;9.988;2023-10-31T03:00:28;97412.44;;;11.41;100.00
57114;BME280;42994;51.606;9.988;2023-10-31T03:02:55;97400.31;;;11.38;100.00
57114;BME280;42994;51.606;9.988;2023-10-31T03:05:22;97384.69;;;11.35;100.00
57114;BME280;42994;51.606;9.988;2023-10-31T03:07:49;97394.59;;;11.34;100.00
57114;BME280;42994;51.606;9.988;2023-10-31T03:10:16;97407.78;;;11.36;100.00
57114;BME280;42994;51.606;9.988;2023-10-31T03:12:42;97399.03;;;11.41;100.00
57114;BME280;42994;51.606;9.988;2023-10-31T03:15:10;97402.88;;;11.45;100.00
57114;BME280;42994;51.606;9.988;2023-10-31T03:17:37;97405.13;;;11.36;100.00
57114;BME280;42994;51.606;9.988;2023-10-31T03:20:05;97411.66;;;11.28;100.00
57114;BME280;42994;51.606;9.988;2023-10-31T03:22:31;97413.66;;;11.21;100.00
57114;BME280;42994;51.606;9.988;2023-10-31T03:24:58;97384.97;;;11.10;100.00
57114;BME280;42994;51.606;9.988;2023-10-31T03:27:25;97354.09;;;10.95;100.00
57114;BME280;42994;51.606;9.988;2023-10-31T03:29:52;97337.56;;;10.87;100.00
57114;BME280;42994;51.606;9.988;2023-10-31T03:32:20;97312.13;;;10.89;100.00
57114;BME280;42994;51.606;9.988;2023-10-31T03:34:46;97305.72;;;10.90;100.00
57114;BME280;42994;51.606;9.988;2023-10-31T03:37:13;97304.69;;;10.80;100.00
57114;BME280;42994;51.606;9.988;2023-10-31T03:39:40;97290.94;;;10.76;100.00
57114;BME280;42994;51.606;9.988;2023-10-31T03:42:07;97288.38;;;10.69;100.00
57114;BME280;42994;51.606;9.988;2023-10-31T03:44:33;97280.00;;;10.66;100.00
57114;BME280;42994;51.606;9.988;2023-10-31T03:47:00;97268.13;;;10.62;100.00
57114;BME280;42994;51.606;9.988;2023-10-31T03:49:29;97271.38;;;10.64;100.00
57114;BME280;42994;51.606;9.988;2023-10-31T03:51:55;97269.41;;;10.59;100.00
57114;BME280;42994;51.606;9.988;2023-10-31T03:54:22;97264.75;;;10.54;100.00
57114;BME280;42994;51.606;9.988;2023-10-31T03:56:49;97253.81;;;10.56;100.00
57114;BME280;42994;51.606;9.988;2023-10-31T03:59:16;97258.69;;;10.47;100.00
57114;BME280;42994;51.606;9.988;2023-10-31T04:01:43;97264.06;;;10.47;100.00
57114;BME280;42994;51.606;9.988;2023-10-31T04:04:09;97256.03;;;10.47;100.00
57114;BME280;42994;51.606;9.988;2023-10-31T04:06:37;97247.41;;;10.57;100.00
57114;BME280;42994;51.606;9.988;2023-10-31T04:09:06;97251.84;;;10.39;100.00
57114;BME280;42994;51.606;9.988;2023-10-31T04:11:33;97262.22;;;10.36;100.00
57114;BME280;42994;51.606;9.988;2023-10-31T04:14:00;97266.53;;;10.37;100.00
57114;BME280;42994;51.606;9.988;2023-10-31T04:16:26;97260.81;;;10.45;100.00
57114;BME280;42994;51.606;9.988;2023-10-31T04:18:53;97255.56;;;10.38;100.00
57114;BME280;42994;51.606;9.988;2023-10-31T04:21:20;97255.22;;;10.35;100.00
57114;BME280;42994;51.606;9.988;2023-10-31T04:23:48;97260.66;;;10.28;100.00
57114;BME280;42994;51.606;9.988;2023-10-31T04:26:14;97252.22;;;10.31;100.00
57114;BME280;42994;51.606;9.988;2023-10-31T04:28:42;97254.97;;;10.25;100.00
57114;BME280;42994;51.606;9.988;2023-10-31T04:31:09;97254.38;;;10.23;100.00
57114;BME280;42994;51.606;9.988;2023-10-31T04:33:36;97256.72;;;10.19;100.00
57114;BME280;42994;51.606;9.988;2023-10-31T04:36:03;97255.78;;;10.13;100.00
57114;BME280;42994;51.606;9.988;2023-10-31T04:38:30;97247.03;;;10.18;100.00
57114;BME280;42994;51.606;9.988;2023-10-31T04:40:58;97266.94;;;10.10;100.00
57114;BME280;42994;51.606;9.988;2023-10-31T04:43:24;97275.19;;;10.09;100.00
57114;BME280;42994;51.606;9.988;2023-10-31T04:45:51;97280.31;;;10.10;100.00
57114;BME280;42994;51.606;9.988;2023-10-31T04:48:18;97275.19;;;10.09;100.00
57114;BME280;42994;51.606;9.988;2023-10-31T04:50:44;97281.25;;;10.04;100.00
57114;BME280;42994;51.606;9.988;2023-10-31T04:53:11;97293.81;;;10.04;100.00
57114;BME280;42994;51.606;9.988;2023-10-31T04:55:38;97287.19;;;10.06;100.00
57114;BME280;42994;51.606;9.988;2023-10-31T04:58:06;97292.53;;;10.06;100.00
57114;BME280;42994;51.606;9.988;2023-10-31T05:00:32;97283.34;;;10.02;100.00
57114;BME280;42994;51.606;9.988;2023-10-31T05:02:59;97292.78;;;10.05;100.00
57114;BME280;42994;51.606;9.988;2023-10-31T05:05:28;97292.19;;;10.03;100.00
57114;BME280;42994;51.606;9.988;2023-10-31T05:07:54;97293.81;;;10.04;100.00
57114;BME280;42994;51.606;9.988;2023-10-31T05:10:21;97299.28;;;9.97;100.00
57114;BME280;42994;51.606;9.988;2023-10-31T05:12:48;97305.81;;;10.01;100.00
57114;BME280;42994;51.606;9.988;2023-10-31T05:15:17;97298.56;;;10.01;100.00
57114;BME280;42994;51.606;9.988;2023-10-31T05:17:44;97293.81;;;10.04;100.00
57114;BME280;42994;51.606;9.988;2023-10-31T05:20:11;97297.69;;;10.08;100.00
57114;BME280;42994;51.606;9.988;2023-10-31T05:22:37;97289.50;;;10.03;100.00
57114;BME280;42994;51.606;9.988;2023-10-31T05:25:04;97280.53;;;9.97;100.00
57114;BME280;42994;51.606;9.988;2023-10-31T05:27:31;97289.16;;;9.99;100.00
57114;BME280;42994;51.606;9.988;2023-10-31T05:29:58;97290.41;;;9.96;100.00
57114;BME280;42994;51.606;9.988;2023-10-31T05:32:26;97290.31;;;9.91;100.00
57114;BME280;42994;51.606;9.988;2023-10-31T05:34:56;97307.41;;;9.90;100.00
57114;BME280;42994;51.606;9.988;2023-10-31T05:37:23;97319.34;;;9.76;100.00
57114;BME280;42994;51.606;9.988;2023-10-31T05:39:49;97323.25;;;9.61;100.00
57114;BME280;42994;51.606;9.988;2023-10-31T05:42:16;97330.47;;;9.61;100.00
57114;BME280;42994;51.606;9.988;2023-10-31T05:44:46;97337.09;;;9.58;100.00
57114;BME280;42994;51.606;9.988;2023-10-31T05:47:12;97343.41;;;9.64;100.00
57114;BME280;42994;51.606;9.988;2023-10-31T05:49:42;97353.03;;;9.65;100.00
57114;BME280;42994;51.606;9.988;2023-10-31T05:52:09;97347.09;;;9.63;100.00
57114;BME280;42994;51.606;9.988;2023-10-31T05:54:35;97339.13;;;9.75;100.00
57114;BME280;42994;51.606;9.988;2023-10-31T05:57:02;97335.50;;;9.69;100.00
57114;BME280;42994;51.606;9.988;2023-10-31T05:59:29;97340.88;;;9.81;100.00
57114;BME280;42994;51.606;9.988;2023-10-31T06:01:56;97339.50;;;9.78;100.00
57114;BME280;42994;51.606;9.988;2023-10-31T06:04:25;97340.31;;;9.79;100.00
57114;BME280;42994;51.606;9.988;2023-10-31T06:06:53;97331.00;;;9.81;100.00
57114;BME280;42994;51.606;9.988;2023-10-31T06:09:20;97327.06;;;9.84;100.00
57114;BME280;42994;51.606;9.988;2023-10-31T06:11:47;97332.06;;;9.80;100.00
57114;BME280;42994;51.606;9.988;2023-10-31T06:14:14;97335.53;;;9.81;100.00
57114;BME280;42994;51.606;9.988;2023-10-31T06:16:40;97348.34;;;9.91;100.00
57114;BME280;42994;51.606;9.988;2023-10-31T06:19:07;97323.97;;;9.99;100.00
57114;BME280;42994;51.606;9.988;2023-10-31T06:21:34;97326.84;;;9.97;100.00
57114;BME280;42994;51.606;9.988;2023-10-31T06:24:03;97330.56;;;9.96;100.00
57114;BME280;42994;51.606;9.988;2023-10-31T06:26:30;97321.16;;;9.94;100.00
57114;BME280;42994;51.606;9.988;2023-10-31T06:28:57;97326.19;;;10.02;100.00
57114;BME280;42994;51.606;9.988;2023-10-31T06:31:24;97326.50;;;9.94;100.00
57114;BME280;42994;51.606;9.988;2023-10-31T06:33:50;97333.16;;;10.03;100.00
57114;BME280;42994;51.606;9.988;2023-10-31T06:36:17;97343.00;;;9.91;100.00
57114;BME280;42994;51.606;9.988;2023-10-31T06:38:44;97348.94;;;9.93;100.00
57114;BME280;42994;51.606;9.988;2023-10-31T06:41:12;97359.63;;;9.81;100.00
57114;BME280;42994;51.606;9.988;2023-10-31T06:43:38;97355.81;;;9.89;100.00
57114;BME280;42994;51.606;9.988;2023-10-31T06:46:05;97359.28;;;9.89;100.00
57114;BME280;42994;51.606;9.988;2023-10-31T06:48:32;97365.84;;;9.93;100.00
57114;BME280;42994;51.606;9.988;2023-10-31T06:50:59;97370.25;;;9.88;100.00
57114;BME280;42994;51.606;9.988;2023-10-31T06:53:26;97375.34;;;9.89;100.00
57114;BME280;42994;51.606;9.988;2023-10-31T06:55:52;97374.75;;;9.87;100.00
57114;BME280;42994;51.606;9.988;2023-10-31T06:58:20;97376.53;;;9.93;100.00
57114;BME280;42994;51.606;9.988;2023-10-31T07:00:47;97373.38;;;9.96;100.00
57114;BME280;42994;51.606;9.988;2023-10-31T07:03:13;97371.06;;;9.88;100.00
57114;BME280;42994;51.606;9.988;2023-10-31T07:05:41;97375.13;;;9.91;100.00
57114;BME280;42994;51.606;9.988;2023-10-31T07:08:08;97371.78;;;9.95;100.00
57114;BME280;42994;51.606;9.988;2023-10-31T07:10:35;97368.59;;;9.87;100.00
57114;BME280;42994;51.606;9.988;2023-10-31T07:13:02;97373.50;;;9.90;100.00
57114;BME280;42994;51.606;9.988;2023-10-31T07:15:30;97374.31;;;9.90;100.00
57114;BME280;42994;51.606;9.988;2023-10-31T07:17:57;97384.28;;;9.83;100.00
57114;BME280;42994;51.606;9.988;2023-10-31T07:20:24;97375.13;;;9.91;100.00
57114;BME280;42994;51.606;9.988;2023-10-31T07:22:50;97369.53;;;9.92;100.00
57114;BME280;42994;51.606;9.988;2023-10-31T07:25:17;97371.50;;;9.85;100.00
57114;BME280;42994;51.606;9.988;2023-10-31T07:27:44;97388.47;;;9.79;100.00
57114;BME280;42994;51.606;9.988;2023-10-31T07:30:11;97385.09;;;9.84;100.00
57114;BME280;42994;51.606;9.988;2023-10-31T07:32:39;97381.41;;;9.85;100.00
57114;BME280;42994;51.606;9.988;2023-10-31T07:35:06;97390.38;;;9.90;100.00
57114;BME280;42994;51.606;9.988;2023-10-31T07:37:33;97385.72;;;9.86;100.00
57114;BME280;42994;51.606;9.988;2023-10-31T07:40:00;97391.50;;;9.82;100.00
57114;BME280;42994;51.606;9.988;2023-10-31T07:42:26;97391.28;;;9.84;100.00
57114;BME280;42994;51.606;9.988;2023-10-31T07:44:53;97394.69;;;9.91;100.00
57114;BME280;42994;51.606;9.988;2023-10-31T07:47:20;97387.09;;;9.88;100.00
57114;BME280;42994;51.606;9.988;2023-10-31T07:49:48;97400.84;;;9.92;100.00
57114;BME280;42994;51.606;9.988;2023-10-31T07:52:14;97397.00;;;9.88;100.00
57114;BME280;42994;51.606;9.988;2023-10-31T07:54:41;97401.88;;;9.91;100.00
57114;BME280;42994;51.606;9.988;2023-10-31T07:57:08;97418.06;;;9.84;100.00
57114;BME280;42994;51.606;9.988;2023-10-31T07:59:35;97430.78;;;9.70;100.00
57114;BME280;42994;51.606;9.988;2023-10-31T08:02:02;97446.31;;;9.61;100.00
57114;BME280;42994;51.606;9.988;2023-10-31T08:04:29;97464.22;;;9.42;100.00
57114;BME280;42994;51.606;9.988;2023-10-31T08:06:57;97465.94;;;9.55;100.00
57114;BME280;42994;51.606;9.988;2023-10-31T08:09:24;97476.78;;;9.60;100.00
57114;BME280;42994;51.606;9.988;2023-10-31T08:11:51;97476.03;;;9.53;100.00
57114;BME280;42994;51.606;9.988;2023-10-31T08:14:18;97484.72;;;9.49;100.00
57114;BME280;42994;51.606;9.988;2023-10-31T08:16:45;97490.22;;;9.72;100.00
57114;BME280;42994;51.606;9.988;2023-10-31T08:19:11;97493.72;;;9.73;100.00
57114;BME280;42994;51.606;9.988;2023-10-31T08:21:39;97490.81;;;9.56;100.00
57114;BME280;42994;51.606;9.988;2023-10-31T08:24:08;97486.81;;;9.65;100.00
57114;BME280;42994;51.606;9.988;2023-10-31T08:26:35;97489.69;;;9.63;100.00
57114;BME280;42994;51.606;9.988;2023-10-31T08:29:02;97490.53;;;9.64;100.00
57114;BME280;42994;51.606;9.988;2023-10-31T08:31:30;97485.34;;;9.69;100.00
57114;BME280;42994;51.606;9.988;2023-10-31T08:33:56;97495.88;;;9.64;100.00
57114;BME280;42994;51.606;9.988;2023-10-31T08:36:23;97493.13;;;9.71;100.00
57114;BME280;42994;51.606;9.988;2023-10-31T08:38:50;97504.66;;;9.71;100.00
57114;BME280;42994;51.606;9.988;2023-10-31T08:41:18;97515.72;;;9.75;100.00
57114;BME280;42994;51.606;9.988;2023-10-31T08:43:45;97506.88;;;9.74;100.00
57114;BME280;42994;51.606;9.988;2023-10-31T08:46:12;97526.94;;;9.65;100.00
57114;BME280;42994;51.606;9.988;2023-10-31T08:48:39;97536.13;;;9.51;100.00
57114;BME280;42994;51.606;9.988;2023-10-31T08:51:06;97544.25;;;9.62;100.00
57114;BME280;42994;51.606;9.988;2023-10-31T08:53:32;97547.09;;;9.68;100.00
57114;BME280;42994;51.606;9.988;2023-10-31T08:55:59;97566.09;;;9.59;100.00
57114;BME280;42994;51.606;9.988;2023-10-31T08:58:27;97560.09;;;9.64;100.00
57114;BME280;42994;51.606;9.988;2023-10-31T09:00:55;97573.25;;;9.66;100.00
57114;BME280;42994;51.606;9.988;2023-10-31T09:03:21;97576.31;;;9.69;100.00
57114;BME280;42994;51.606;9.988;2023-10-31T09:05:48;97582.25;;;9.71;100.00
57114;BME280;42994;51.606;9.988;2023-10-31T09:08:15;97574.59;;;9.75;100.00
57114;BME280;42994;51.606;9.988;2023-10-31T09:10:42;97572.16;;;9.73;100.00
57114;BME280;42994;51.606;9.988;2023-10-31T09:13:11;97557.13;;;9.72;100.00
57114;BME280;42994;51.606;9.988;2023-10-31T09:15:39;97554.91;;;9.88;100.00
57114;BME280;42994;51.606;9.988;2023-10-31T09:18:06;97554.59;;;9.96;100.00
57114;BME280;42994;51.606;9.988;2023-10-31T09:20:33;97543.13;;;10.07;100.00
57114;BME280;42994;51.606;9.988;2023-10-31T09:23:00;97542.75;;;10.04;100.00
57114;BME280;42994;51.606;9.988;2023-10-31T09:25:27;97562.63;;;9.77;100.00
57114;BME280;42994;51.606;9.988;2023-10-31T09:27:55;97566.03;;;9.66;100.00
57114;BME280;42994;51.606;9.988;2023-10-31T09:30:24;97584.91;;;9.53;100.00
57114;BME280;42994;51.606;9.988;2023-10-31T09:32:52;97593.03;;;9.39;100.00
57114;BME280;42994;51.606;9.988;2023-10-31T09:35:19;97614.63;;;9.38;100.00
57114;BME280;42994;51.606;9.988;2023-10-31T09:37:46;97630.78;;;9.24;100.00
57114;BME280;42994;51.606;9.988;2023-10-31T09:40:14;97640.88;;;9.22;100.00
57114;BME280;42994;51.606;9.988;2023-10-31T09:42:41;97666.22;;;9.20;100.00
57114;BME280;42994;51.606;9.988;2023-10-31T09:45:08;97674.47;;;9.12;100.00
57114;BME280;42994;51.606;9.988;2023-10-31T09:47:36;97667.41;;;9.24;100.00
57114;BME280;42994;51.606;9.988;2023-10-31T09:50:05;97692.63;;;9.35;100.00
57114;BME280;42994;51.606;9.988;2023-10-31T09:52:33;97683.63;;;9.29;100.00
57114;BME280;42994;51.606;9.988;2023-10-31T09:55:02;97688.91;;;9.36;100.00
57114;BME280;42994;51.606;9.988;2023-10-31T09:57:29;97701.19;;;9.43;100.00
57114;BME280;42994;51.606;9.988;2023-10-31T09:59:56;97695.59;;;9.52;100.00
57114;BME280;42994;51.606;9.988;2023-10-31T10:02:22;97698.00;;;9.60;100.00
57114;BME280;42994;51.606;9.988;2023-10-31T10:04:49;97701.72;;;9.59;100.00
57114;BME280;42994;51.606;9.988;2023-10-31T10:07:19;97681.31;;;9.65;100.00
57114;BME280;42994;51.606;9.988;2023-10-31T10:09:46;97683.81;;;9.59;100.00
57114;BME280;42994;51.606;9.988;2023-10-31T10:12:14;97689.28;;;9.71;100.00
57114;BME280;42994;51.606;9.988;2023-10-31T10:14:41;97692.81;;;9.65;100.00
57114;BME280;42994;51.606;9.988;2023-10-31T10:17:14;97683.59;;;9.86;100.00
57114;BME280;42994;51.606;9.988;2023-10-31T10:19:41;97676.44;;;9.80;100.00
57114;BME280;42994;51.606;9.988;2023-10-31T10:22:08;97667.97;;;9.83;100.00
57114;BME280;42994;51.606;9.988;2023-10-31T10:24:39;97674.75;;;9.86;100.00
57114;BME280;42994;51.606;9.988;2023-10-31T10:27:07;97672.50;;;9.82;100.00
57114;BME280;42994;51.606;9.988;2023-10-31T10:29:34;97662.22;;;9.79;100.00
57114;BME280;42994;51.606;9.988;2023-10-31T10:32:01;97658.53;;;9.80;100.00
57114;BME280;42994;51.606;9.988;2023-10-31T10:34:31;97654.75;;;9.88;100.00
57114;BME280;42994;51.606;9.988;2023-10-31T10:36:58;97651.63;;;9.91;100.00
57114;BME280;42994;51.606;9.988;2023-10-31T10:39:25;97658.84;;;9.91;100.00
57114;BME280;42994;51.606;9.988;2023-10-31T10:41:54;97653.81;;;10.01;100.00
57114;BME280;42994;51.606;9.988;2023-10-31T10:44:30;97664.78;;;9.93;100.00
57114;BME280;42994;51.606;9.988;2023-10-31T10:46:58;97654.69;;;9.95;100.00
57114;BME280;42994;51.606;9.988;2023-10-31T10:49:27;97646.66;;;9.95;100.00
57114;BME280;42994;51.606;9.988;2023-10-31T10:51:59;97657.28;;;10.01;100.00
57114;BME280;42994;51.606;9.988;2023-10-31T10:54:32;97653.28;;;10.11;100.00
57114;BME280;42994;51.606;9.988;2023-10-31T10:57:10;97649.94;;;10.15;100.00
57114;BME280;42994;51.606;9.988;2023-10-31T10:59:42;97646.59;;;10.20;100.00
57114;BME280;42994;51.606;9.988;2023-10-31T11:02:09;97650.00;;;10.27;100.00
57114;BME280;42994;51.606;9.988;2023-10-31T11:04:39;97644.22;;;10.30;100.00
57114;BME280;42994;51.606;9.988;2023-10-31T11:07:08;97645.50;;;10.28;100.00
57114;BME280;42994;51.606;9.988;2023-10-31T11:09:35;97626.91;;;10.33;100.00
57114;BME280;42994;51.606;9.988;2023-10-31T11:12:02;97626.91;;;10.33;100.00
57114;BME280;42994;51.606;9.988;2023-10-31T11:14:31;97634.34;;;10.31;100.00
57114;BME280;42994;51.606;9.988;2023-10-31T11:17:02;97623.81;;;10.29;100.00
57114;BME280;42994;51.606;9.988;2023-10-31T11:19:31;97636.59;;;10.34;100.00
57114;BME280;42994;51.606;9.988;2023-10-31T11:22:00;97647.75;;;10.31;100.00
57114;BME280;42994;51.606;9.988;2023-10-31T11:24:28;97648.41;;;10.26;100.00
57114;BME280;42994;51.606;9.988;2023-10-31T11:26:59;97646.09;;;10.30;100.00
57114;BME280;42994;51.606;9.988;2023-10-31T11:29:26;97654.94;;;10.30;100.00
57114;BME280;42994;51.606;9.988;2023-10-31T11:31:55;97662.59;;;10.27;100.00
57114;BME280;42994;51.606;9.988;2023-10-31T11:34:23;97661.69;;;10.14;100.00
57114;BME280;42994;51.606;9.988;2023-10-31T11:36:52;97692.16;;;9.95;100.00
57114;BME280;42994;51.606;9.988;2023-10-31T11:39:20;97693.03;;;9.89;100.00
57114;BME280;42994;51.606;9.988;2023-10-31T11:41:54;97696.16;;;9.86;100.00
57114;BME280;42994;51.606;9.988;2023-10-31T11:44:22;97708.28;;;9.88;100.00
57114;BME280;42994;51.606;9.988;2023-10-31T11:46:50;97696.91;;;9.93;100.00
57114;BME280;42994;51.606;9.988;2023-10-31T11:49:45;97698.94;;;9.97;100.00
57114;BME280;42994;51.606;9.988;2023-10-31T11:52:14;97681.84;;;9.98;100.00
57114;BME280;42994;51.606;9.988;2023-10-31T11:54:41;97673.13;;;10.03;100.00
57114;BME280;42994;51.606;9.988;2023-10-31T11:57:08;97668.09;;;10.13;100.00
57114;BME280;42994;51.606;9.988;2023-10-31T11:59:36;97672.72;;;10.25;100.00
57114;BME280;42994;51.606;9.988;2023-10-31T12:02:12;97670.97;;;10.37;100.00
57114;BME280;42994;51.606;9.988;2023-10-31T12:04:40;97663.06;;;10.42;100.00
57114;BME280;42994;51.606;9.988;2023-10-31T12:07:08;97661.66;;;10.58;100.00
57114;BME280;42994;51.606;9.988;2023-10-31T12:09:46;97655.63;;;10.63;100.00
57114;BME280;42994;51.606;9.988;2023-10-31T12:12:13;97656.97;;;10.53;100.00
57114;BME280;42994;51.606;9.988;2023-10-31T12:14:40;97657.56;;;10.55;100.00
57114;BME280;42994;51.606;9.988;2023-10-31T12:17:06;97657.94;;;10.59;100.00
57114;BME280;42994;51.606;9.988;2023-10-31T12:19:35;97663.06;;;10.61;100.00
57114;BME280;42994;51.606;9.988;2023-10-31T12:22:12;97671.78;;;10.56;100.00
57114;BME280;42994;51.606;9.988;2023-10-31T12:24:40;97670.59;;;10.52;100.00
57114;BME280;42994;51.606;9.988;2023-10-31T12:27:06;97665.75;;;10.61;100.00
57114;BME280;42994;51.606;9.988;2023-10-31T12:29:33;97668.19;;;10.62;100.00
57114;BME280;42994;51.606;9.988;2023-10-31T12:32:00;97654.84;;;10.74;100.00
57114;BME280;42994;51.606;9.988;2023-10-31T12:34:27;97664.28;;;10.76;100.00
57114;BME280;42994;51.606;9.988;2023-10-31T12:36:54;97665.13;;;10.77;100.00
57114;BME280;42994;51.606;9.988;2023-10-31T12:39:25;97665.25;;;10.82;100.00
57114;BME280;42994;51.606;9.988;2023-10-31T12:41:52;97666.91;;;10.83;100.00
57114;BME280;42994;51.606;9.988;2023-10-31T12:44:23;97662.13;;;10.85;100.00
57114;BME280;42994;51.606;9.988;2023-10-31T12:46:50;97664.38;;;10.88;100.00
57114;BME280;42994;51.606;9.988;2023-10-31T12:49:18;97667.13;;;10.82;100.00
57114;BME280;42994;51.606;9.988;2023-10-31T12:51:59;97670.31;;;10.90;100.00
57114;BME280;42994;51.606;9.988;2023-10-31T12:54:31;97683.94;;;10.89;100.00
57114;BME280;42994;51.606;9.988;2023-10-31T12:57:00;97678.00;;;10.87;100.00